createdAt,value
2023-03-30T07:34:37.941Z,95038.00
2023-03-30T07:34:49.248Z,95036.00
2023-03-30T07:35:00.850Z,95036.00
2023-03-30T07:35:12.164Z,95038.00
2023-03-30T07:35:23.760Z,95040.00
2023-03-30T07:35:35.127Z,95040.00
2023-03-30T07:35:46.751Z,95038.00
2023-03-30T07:35:58.210Z,95040.00
2023-03-30T07:36:09.844Z,95040.00
2023-03-30T07:36:21.315Z,95040.00
2023-03-30T07:36:32.886Z,95040.00
2023-03-30T07:36:44.205Z,95042.00
2023-03-30T07:36:55.774Z,95042.00
2023-03-30T07:37:07.647Z,95042.00
2023-03-30T07:37:21.026Z,95046.00
2023-03-30T07:37:30.294Z,95048.00
2023-03-30T07:37:41.892Z,95046.00
2023-03-30T07:38:02.048Z,95046.00
2023-03-30T07:38:05.229Z,95046.00
2023-03-30T07:38:16.527Z,95046.00
2023-03-30T07:38:28.110Z,95046.00
2023-03-30T07:38:39.437Z,95044.00
2023-03-30T07:38:51.051Z,95044.00
2023-03-30T07:39:02.380Z,95046.00
2023-03-30T07:39:13.987Z,95042.00
2023-03-30T07:39:25.312Z,95044.00
2023-03-30T07:39:36.916Z,95042.00
2023-03-30T07:39:48.357Z,95042.00
2023-03-30T07:39:59.975Z,95042.00
2023-03-30T07:40:11.295Z,95038.00
2023-03-30T07:40:22.894Z,95044.00
2023-03-30T07:40:34.484Z,95042.00
2023-03-30T07:40:46.209Z,95044.00
2023-03-30T07:40:57.500Z,95042.00
2023-03-30T07:41:09.103Z,95040.00
2023-03-30T07:41:20.458Z,95040.00
2023-03-30T07:41:32.052Z,95042.00
2023-03-30T07:41:43.382Z,95042.00
2023-03-30T07:41:54.972Z,95042.00
2023-03-30T07:42:06.299Z,95038.00
2023-03-30T07:42:17.885Z,95042.00
2023-03-30T07:42:29.197Z,95044.00
2023-03-30T07:42:40.793Z,95042.00
2023-03-30T07:42:52.127Z,95042.00
2023-03-30T07:43:03.722Z,95042.00
2023-03-30T07:43:15.057Z,95044.00
2023-03-30T07:43:26.638Z,95042.00
2023-03-30T07:43:37.966Z,95042.00
2023-03-30T07:43:49.542Z,95042.00
2023-03-30T07:44:00.859Z,95042.00
2023-03-30T07:44:12.435Z,95042.00
2023-03-30T07:44:23.785Z,95044.00
2023-03-30T07:44:35.365Z,95042.00
2023-03-30T07:44:46.752Z,95042.00
2023-03-30T07:44:58.377Z,95044.00
2023-03-30T07:45:09.704Z,95044.00
2023-03-30T07:45:21.275Z,95042.00
2023-03-30T07:45:32.598Z,95042.00
2023-03-30T07:45:44.185Z,95048.00
2023-03-30T07:45:55.552Z,95046.00
2023-03-30T07:46:07.170Z,95044.00
2023-03-30T07:46:18.522Z,95042.00
2023-03-30T07:46:30.212Z,95044.00
2023-03-30T07:46:41.645Z,95042.00
2023-03-30T07:46:53.321Z,95044.00
2023-03-30T07:47:04.652Z,95044.00
2023-03-30T07:47:16.256Z,95044.00
2023-03-30T07:47:27.613Z,95046.00
2023-03-30T07:47:39.209Z,95044.00
2023-03-30T07:47:50.537Z,95044.00
2023-03-30T07:48:02.108Z,95044.00
2023-03-30T07:48:13.467Z,95044.00
2023-03-30T07:48:25.052Z,95046.00
2023-03-30T07:48:36.419Z,95046.00
2023-03-30T07:48:48.015Z,95046.00
2023-03-30T07:48:59.337Z,95046.00
2023-03-30T07:49:10.927Z,95044.00
2023-03-30T07:49:22.255Z,95048.00
2023-03-30T07:49:33.869Z,95048.00
2023-03-30T07:49:45.213Z,95046.00
2023-03-30T07:49:56.771Z,95046.00
2023-03-30T07:50:08.122Z,95044.00
2023-03-30T07:50:19.703Z,95048.00
2023-03-30T07:50:31.074Z,95044.00
2023-03-30T07:50:42.664Z,95048.00
2023-03-30T07:50:53.979Z,95046.00
2023-03-30T07:51:05.839Z,95050.00
2023-03-30T07:51:17.705Z,95046.00
2023-03-30T07:51:29.038Z,95046.00
2023-03-30T07:51:40.619Z,95046.00
2023-03-30T07:51:51.944Z,95048.00
2023-03-30T07:52:03.530Z,95046.00
2023-03-30T07:52:14.889Z,95048.00
2023-03-30T07:52:26.447Z,95048.00
2023-03-30T07:52:37.762Z,95048.00
2023-03-30T07:52:49.375Z,95046.00
2023-03-30T07:53:00.704Z,95048.00
2023-03-30T07:53:12.285Z,95050.00
2023-03-30T07:53:23.621Z,95046.00
2023-03-30T07:53:35.199Z,95048.00
2023-03-30T07:53:46.516Z,95048.00
2023-03-30T07:53:58.097Z,95046.00
2023-03-30T07:54:09.403Z,95048.00
2023-03-30T07:54:20.973Z,95050.00
2023-03-30T07:54:32.317Z,95048.00
2023-03-30T07:54:43.911Z,95048.00
2023-03-30T07:54:55.239Z,95048.00
2023-03-30T07:55:06.809Z,95048.00
2023-03-30T07:55:18.143Z,95046.00
2023-03-30T07:55:29.741Z,95050.00
2023-03-30T07:55:41.088Z,95050.00
2023-03-30T07:55:52.677Z,95048.00
2023-03-30T07:56:04.021Z,95048.00
2023-03-30T07:56:15.600Z,95048.00
2023-03-30T07:56:26.942Z,95048.00
2023-03-30T07:56:38.551Z,95048.00
2023-03-30T07:56:49.908Z,95050.00
2023-03-30T07:57:01.579Z,95048.00
2023-03-30T07:57:13.003Z,95046.00
2023-03-30T07:57:24.661Z,95046.00
2023-03-30T07:57:36.021Z,95046.00
2023-03-30T07:57:47.577Z,95046.00
2023-03-30T07:57:58.908Z,95044.00
2023-03-30T07:58:10.499Z,95044.00
2023-03-30T07:58:21.821Z,95046.00
2023-03-30T07:58:33.427Z,95044.00
2023-03-30T07:58:44.878Z,95044.00
2023-03-30T07:58:57.032Z,95042.00
2023-03-30T07:59:08.772Z,95046.00
2023-03-30T07:59:20.126Z,95044.00
2023-03-30T07:59:31.706Z,95044.00
2023-03-30T07:59:43.045Z,95042.00
2023-03-30T07:59:54.635Z,95040.00
2023-03-30T08:00:05.952Z,95042.00
2023-03-30T08:00:17.534Z,95044.00
2023-03-30T08:00:28.874Z,95044.00
2023-03-30T08:00:40.455Z,95042.00
2023-03-30T08:00:51.774Z,95044.00
2023-03-30T08:01:03.686Z,95042.00
2023-03-30T08:01:15.430Z,95042.00
2023-03-30T08:01:26.744Z,95040.00
2023-03-30T08:01:38.372Z,95044.00
2023-03-30T08:01:49.751Z,95042.00
2023-03-30T08:02:01.356Z,95042.00
2023-03-30T08:02:12.685Z,95044.00
2023-03-30T08:02:24.304Z,95044.00
2023-03-30T08:02:35.694Z,95042.00
2023-03-30T08:02:47.320Z,95042.00
2023-03-30T08:02:58.712Z,95042.00
2023-03-30T08:03:10.453Z,95040.00
2023-03-30T08:03:22.131Z,95044.00
2023-03-30T08:03:34.094Z,95040.00
2023-03-30T08:03:45.612Z,95042.00
2023-03-30T08:03:57.336Z,95042.00
2023-03-30T08:04:08.749Z,95040.00
2023-03-30T08:04:20.421Z,95040.00
2023-03-30T08:04:31.956Z,95038.00
2023-03-30T08:04:43.807Z,95040.00
2023-03-30T08:04:55.499Z,95038.00
2023-03-30T08:05:07.242Z,95040.00
2023-03-30T08:05:18.628Z,95038.00
2023-03-30T08:05:30.193Z,95038.00
2023-03-30T08:05:41.511Z,95038.00
2023-03-30T08:05:53.113Z,95036.00
2023-03-30T08:06:04.465Z,95036.00
2023-03-30T08:06:16.033Z,95038.00
2023-03-30T08:06:27.353Z,95034.00
2023-03-30T08:06:38.928Z,95036.00
2023-03-30T08:06:50.265Z,95036.00
2023-03-30T08:07:01.872Z,95036.00
2023-03-30T08:07:13.179Z,95034.00
2023-03-30T08:07:24.757Z,95036.00
2023-03-30T08:07:36.063Z,95036.00
2023-03-30T08:07:47.659Z,95036.00
2023-03-30T08:07:59.033Z,95038.00
2023-03-30T08:08:10.613Z,95034.00
2023-03-30T08:08:21.937Z,95038.00
2023-03-30T08:08:33.517Z,95038.00
2023-03-30T08:08:44.834Z,95038.00
2023-03-30T08:08:56.426Z,95038.00
2023-03-30T08:09:07.753Z,95038.00
2023-03-30T08:09:19.346Z,95038.00
2023-03-30T08:09:30.692Z,95042.00
2023-03-30T08:09:42.314Z,95042.00
2023-03-30T08:09:53.626Z,95036.00
2023-03-30T08:10:05.220Z,95044.00
2023-03-30T08:10:16.521Z,95044.00
2023-03-30T08:10:28.103Z,95046.00
2023-03-30T08:10:39.434Z,95046.00
2023-03-30T08:10:51.035Z,95044.00
2023-03-30T08:11:02.733Z,95044.00
2023-03-30T08:11:14.452Z,95042.00
2023-03-30T08:11:25.776Z,95044.00
2023-03-30T08:11:37.394Z,95042.00
2023-03-30T08:11:48.738Z,95042.00
2023-03-30T08:12:00.330Z,95040.00
2023-03-30T08:12:11.680Z,95042.00
2023-03-30T08:12:23.268Z,95044.00
2023-03-30T08:12:34.592Z,95042.00
2023-03-30T08:12:46.179Z,95042.00
2023-03-30T08:12:57.542Z,95040.00
2023-03-30T08:13:09.115Z,95040.00
2023-03-30T08:13:21.999Z,95042.00
2023-03-30T08:13:31.359Z,95040.00
2023-03-30T08:13:42.950Z,95040.00
2023-03-30T08:13:54.293Z,95040.00
2023-03-30T08:14:05.867Z,95042.00
2023-03-30T08:14:17.206Z,95040.00
2023-03-30T08:14:28.785Z,95042.00
2023-03-30T08:14:40.130Z,95040.00
2023-03-30T08:14:51.730Z,95040.00
2023-03-30T08:15:03.050Z,95040.00
2023-03-30T08:15:14.641Z,95040.00
2023-03-30T08:15:25.968Z,95040.00
2023-03-30T08:15:37.552Z,95040.00
2023-03-30T08:15:48.938Z,95040.00
2023-03-30T08:16:00.581Z,95040.00
2023-03-30T08:16:11.962Z,95040.00
2023-03-30T08:16:23.648Z,95042.00
2023-03-30T08:16:34.985Z,95040.00
2023-03-30T08:16:46.595Z,95040.00
2023-03-30T08:16:57.938Z,95040.00
2023-03-30T08:17:09.506Z,95038.00
2023-03-30T08:17:20.828Z,95042.00
2023-03-30T08:17:32.453Z,95040.00
2023-03-30T08:17:43.774Z,95044.00
2023-03-30T08:17:55.401Z,95042.00
2023-03-30T08:18:06.801Z,95044.00
2023-03-30T08:18:18.402Z,95042.00
2023-03-30T08:18:29.730Z,95042.00
2023-03-30T08:18:41.385Z,95040.00
2023-03-30T08:18:52.689Z,95040.00
2023-03-30T08:19:04.281Z,95042.00
2023-03-30T08:19:15.593Z,95040.00
2023-03-30T08:19:27.171Z,95040.00
2023-03-30T08:19:38.494Z,95040.00
2023-03-30T08:19:50.064Z,95040.00
2023-03-30T08:20:01.420Z,95042.00
2023-03-30T08:20:12.993Z,95040.00
2023-03-30T08:20:24.329Z,95040.00
2023-03-30T08:20:35.929Z,95040.00
2023-03-30T08:20:47.252Z,95040.00
2023-03-30T08:20:58.849Z,95040.00
2023-03-30T08:21:10.198Z,95038.00
2023-03-30T08:21:21.748Z,95040.00
2023-03-30T08:21:33.064Z,95042.00
2023-03-30T08:21:44.658Z,95042.00
2023-03-30T08:21:55.972Z,95042.00
2023-03-30T08:22:07.597Z,95040.00
2023-03-30T08:22:18.909Z,95042.00
2023-03-30T08:22:30.521Z,95040.00
2023-03-30T08:22:41.832Z,95040.00
2023-03-30T08:22:53.412Z,95044.00
2023-03-30T08:23:04.741Z,95040.00
2023-03-30T08:23:16.302Z,95042.00
2023-03-30T08:23:27.617Z,95042.00
2023-03-30T08:23:39.190Z,95040.00
2023-03-30T08:23:50.550Z,95042.00
2023-03-30T08:24:02.146Z,95042.00
2023-03-30T08:24:13.454Z,95042.00
2023-03-30T08:24:25.025Z,95040.00
2023-03-30T08:24:36.353Z,95038.00
2023-03-30T08:24:47.955Z,95042.00
2023-03-30T08:24:59.306Z,95038.00
2023-03-30T08:25:10.911Z,95040.00
2023-03-30T08:25:22.288Z,95036.00
2023-03-30T08:25:33.861Z,95040.00
2023-03-30T08:25:47.096Z,95038.00
2023-03-30T08:25:56.397Z,95040.00
2023-03-30T08:26:08.022Z,95038.00
2023-03-30T08:26:19.351Z,95040.00
2023-03-30T08:26:30.991Z,95038.00
2023-03-30T08:26:42.348Z,95038.00
2023-03-30T08:26:53.971Z,95036.00
2023-03-30T08:27:05.284Z,95036.00
2023-03-30T08:27:16.848Z,95038.00
2023-03-30T08:27:28.221Z,95034.00
2023-03-30T08:27:39.802Z,95036.00
2023-03-30T08:27:51.111Z,95038.00
2023-03-30T08:28:02.722Z,95036.00
2023-03-30T08:28:14.045Z,95034.00
2023-03-30T08:28:25.617Z,95034.00
2023-03-30T08:28:36.957Z,95034.00
2023-03-30T08:28:48.548Z,95034.00
2023-03-30T08:28:59.879Z,95036.00
2023-03-30T08:29:11.468Z,95034.00
2023-03-30T08:29:22.789Z,95038.00
2023-03-30T08:29:34.360Z,95040.00
2023-03-30T08:29:45.685Z,95038.00
2023-03-30T08:29:57.275Z,95040.00
2023-03-30T08:30:08.596Z,95038.00
2023-03-30T08:30:20.165Z,95038.00
2023-03-30T08:30:31.508Z,95038.00
2023-03-30T08:30:43.084Z,95038.00
2023-03-30T08:30:54.408Z,95040.00
2023-03-30T08:31:06.331Z,95038.00
2023-03-30T08:31:18.248Z,95040.00
2023-03-30T08:31:29.652Z,95038.00
2023-03-30T08:31:41.302Z,95040.00
2023-03-30T08:31:52.752Z,95040.00
2023-03-30T08:32:04.471Z,95038.00
2023-03-30T08:32:15.801Z,95040.00
2023-03-30T08:32:27.436Z,95040.00
2023-03-30T08:32:38.775Z,95042.00
2023-03-30T08:32:50.407Z,95042.00
2023-03-30T08:33:01.828Z,95042.00
2023-03-30T08:33:13.526Z,95040.00
2023-03-30T08:33:24.853Z,95042.00
2023-03-30T08:33:36.460Z,95040.00
2023-03-30T08:33:47.802Z,95040.00
2023-03-30T08:33:59.389Z,95040.00
2023-03-30T08:34:10.731Z,95040.00
2023-03-30T08:34:22.321Z,95042.00
2023-03-30T08:34:35.438Z,95042.00
2023-03-30T08:34:43.888Z,95042.00
2023-03-30T08:34:55.251Z,95042.00
2023-03-30T08:35:06.837Z,95042.00
2023-03-30T08:35:18.171Z,95042.00
2023-03-30T08:35:29.794Z,95042.00
2023-03-30T08:35:41.201Z,95040.00
2023-03-30T08:35:52.851Z,95040.00
2023-03-30T08:36:04.220Z,95042.00
2023-03-30T08:36:15.800Z,95040.00
2023-03-30T08:36:27.136Z,95042.00
2023-03-30T08:36:38.735Z,95040.00
2023-03-30T08:36:50.070Z,95042.00
2023-03-30T08:37:01.680Z,95044.00
2023-03-30T08:37:12.993Z,95042.00
2023-03-30T08:37:24.578Z,95042.00
2023-03-30T08:37:35.913Z,95042.00
2023-03-30T08:37:47.509Z,95042.00
2023-03-30T08:37:58.889Z,95042.00
2023-03-30T08:38:10.460Z,95042.00
2023-03-30T08:38:21.789Z,95042.00
2023-03-30T08:38:33.387Z,95042.00
2023-03-30T08:38:44.712Z,95044.00
2023-03-30T08:38:56.292Z,95042.00
2023-03-30T08:39:07.632Z,95044.00
2023-03-30T08:39:19.227Z,95042.00
2023-03-30T08:39:30.560Z,95042.00
2023-03-30T08:39:42.144Z,95042.00
2023-03-30T08:39:53.486Z,95042.00
2023-03-30T08:40:05.161Z,95042.00
2023-03-30T08:40:19.032Z,95040.00
2023-03-30T08:40:26.476Z,95044.00
2023-03-30T08:40:37.817Z,95042.00
2023-03-30T08:40:49.363Z,95040.00
2023-03-30T08:41:00.677Z,95040.00
2023-03-30T08:41:12.264Z,95040.00
2023-03-30T08:41:23.589Z,95040.00
2023-03-30T08:41:35.181Z,95040.00
2023-03-30T08:41:46.521Z,95040.00
2023-03-30T08:41:58.127Z,95040.00
2023-03-30T08:42:09.502Z,95038.00
2023-03-30T08:42:21.074Z,95038.00
2023-03-30T08:42:32.551Z,95038.00
2023-03-30T08:42:44.149Z,95040.00
2023-03-30T08:42:55.486Z,95038.00
2023-03-30T08:43:07.055Z,95036.00
2023-03-30T08:43:18.379Z,95036.00
2023-03-30T08:43:29.981Z,95038.00
2023-03-30T08:43:41.319Z,95038.00
